createdAt,value
2018-07-31T00:00:57.056Z,0
2018-07-31T00:01:57.327Z,0
2018-07-31T00:02:57.053Z,0
2018-07-31T00:03:57.062Z,0
2018-07-31T00:04:57.065Z,0
2018-07-31T00:05:57.063Z,0
2018-07-31T00:06:57.053Z,0
2018-07-31T00:07:57.317Z,0
2018-07-31T00:08:57.310Z,0
2018-07-31T00:09:57.061Z,0
2018-07-31T00:10:57.096Z,0
2018-07-31T00:11:57.060Z,0
2018-07-31T00:12:56.798Z,0
2018-07-31T00:13:57.322Z,0
2018-07-31T00:14:57.058Z,0
2018-07-31T00:15:57.309Z,0
2018-07-31T00:16:57.319Z,0
2018-07-31T00:17:57.313Z,0
2018-07-31T00:18:57.311Z,0
2018-07-31T00:19:57.049Z,0
2018-07-31T00:20:57.301Z,0
2018-07-31T00:21:57.059Z,0
2018-07-31T00:22:56.790Z,0
2018-07-31T00:23:56.796Z,0
2018-07-31T00:24:56.793Z,0
2018-07-31T00:25:57.043Z,0
2018-07-31T00:26:57.301Z,0
2018-07-31T00:27:57.049Z,0
2018-07-31T00:28:57.055Z,0
2018-07-31T00:29:56.788Z,0
2018-07-31T00:30:57.300Z,0
2018-07-31T00:31:57.302Z,0
2018-07-31T00:32:57.052Z,0
2018-07-31T00:33:57.300Z,0
2018-07-31T00:34:56.792Z,0
2018-07-31T00:35:57.299Z,0
2018-07-31T00:36:57.041Z,0
2018-07-31T00:37:56.790Z,0
2018-07-31T00:38:56.801Z,0
2018-07-31T00:39:56.781Z,0
2018-07-31T00:40:57.290Z,0
2018-07-31T00:41:57.298Z,0
2018-07-31T00:42:57.034Z,0
2018-07-31T00:43:57.318Z,0
2018-07-31T00:44:57.034Z,0
2018-07-31T00:45:57.302Z,0
2018-07-31T00:46:57.291Z,0
2018-07-31T00:47:57.297Z,0
2018-07-31T00:48:57.301Z,0
2018-07-31T00:49:57.033Z,0
2018-07-31T00:50:57.291Z,0
2018-07-31T00:51:57.035Z,0
2018-07-31T00:52:57.290Z,0
2018-07-31T00:53:57.301Z,0
2018-07-31T00:54:57.285Z,0
2018-07-31T00:55:56.775Z,0
2018-07-31T00:56:57.290Z,0
2018-07-31T00:57:57.289Z,0
2018-07-31T00:58:57.040Z,0
2018-07-31T00:59:57.044Z,0
2018-07-31T01:00:56.817Z,0
2018-07-31T01:01:57.031Z,0
2018-07-31T01:02:56.784Z,0
2018-07-31T01:03:57.281Z,0
2018-07-31T01:04:57.032Z,0
2018-07-31T01:05:57.035Z,0
2018-07-31T01:06:57.040Z,0
2018-07-31T01:07:57.287Z,0
2018-07-31T01:08:57.301Z,0
2018-07-31T01:09:56.784Z,0
2018-07-31T01:10:57.455Z,0
2018-07-31T01:11:57.281Z,0
2018-07-31T01:12:57.290Z,0
2018-07-31T01:13:56.774Z,0
2018-07-31T01:14:57.030Z,0
2018-07-31T01:15:57.028Z,0
2018-07-31T01:16:57.287Z,0
2018-07-31T01:17:56.772Z,0
2018-07-31T01:18:57.018Z,0
2018-07-31T01:19:56.780Z,0
2018-07-31T01:20:57.276Z,0
2018-07-31T01:21:57.022Z,0
2018-07-31T01:22:57.284Z,0
2018-07-31T01:23:57.287Z,0
2018-07-31T01:24:56.770Z,0
2018-07-31T01:25:57.028Z,0
2018-07-31T01:26:57.021Z,0
2018-07-31T01:27:57.020Z,0
2018-07-31T01:28:57.018Z,0
2018-07-31T01:29:57.286Z,0
2018-07-31T01:30:57.017Z,0
2018-07-31T01:31:57.281Z,0
2018-07-31T01:32:57.020Z,0
2018-07-31T01:33:57.014Z,0
2018-07-31T01:34:56.762Z,0
2018-07-31T01:35:57.030Z,0
2018-07-31T01:36:57.279Z,0
2018-07-31T01:37:57.274Z,0
2018-07-31T01:38:57.023Z,0
2018-07-31T01:39:57.014Z,0
2018-07-31T01:40:57.019Z,0
2018-07-31T01:41:56.768Z,0
2018-07-31T01:42:57.023Z,0
2018-07-31T01:43:56.762Z,0
2018-07-31T01:44:57.276Z,0
2018-07-31T01:45:56.918Z,0
2018-07-31T01:46:57.271Z,0
2018-07-31T01:47:57.284Z,0
2018-07-31T01:48:57.025Z,0
2018-07-31T01:49:57.019Z,0
2018-07-31T01:50:57.020Z,0
2018-07-31T01:51:57.273Z,0
2018-07-31T01:52:57.269Z,0
2018-07-31T01:53:57.271Z,0
2018-07-31T01:54:57.017Z,0
2018-07-31T01:55:57.015Z,0
2018-07-31T01:56:57.276Z,0
2018-07-31T01:57:57.269Z,0
2018-07-31T01:58:57.006Z,0
2018-07-31T01:59:57.266Z,0
2018-07-31T02:00:57.008Z,0
2018-07-31T02:01:57.258Z,0
2018-07-31T02:02:57.006Z,0
2018-07-31T02:03:57.012Z,0
2018-07-31T02:04:57.270Z,0
2018-07-31T02:05:57.010Z,0
2018-07-31T02:06:57.005Z,0
2018-07-31T02:07:57.006Z,0
2018-07-31T02:08:57.013Z,0
2018-07-31T02:09:57.260Z,0
2018-07-31T02:10:56.756Z,0
2018-07-31T02:11:57.296Z,0
2018-07-31T02:12:57.263Z,0
2018-07-31T02:13:57.264Z,0
2018-07-31T02:14:57.009Z,0
2018-07-31T02:15:56.744Z,0
2018-07-31T02:16:57.018Z,0
2018-07-31T02:17:57.323Z,0
2018-07-31T02:18:57.261Z,0
2018-07-31T02:19:56.999Z,0
2018-07-31T02:20:57.261Z,0
2018-07-31T02:21:56.995Z,0
2018-07-31T02:22:56.746Z,0
2018-07-31T02:23:57.345Z,0
2018-07-31T02:24:57.257Z,0
2018-07-31T02:25:57.262Z,0
2018-07-31T02:26:57.266Z,0
2018-07-31T02:27:57.507Z,0
2018-07-31T02:28:57.007Z,0
2018-07-31T02:29:56.748Z,0
2018-07-31T02:30:57.014Z,0
2018-07-31T02:31:56.999Z,0
2018-07-31T02:32:57.252Z,0
2018-07-31T02:33:56.736Z,0
2018-07-31T02:34:57.247Z,0
2018-07-31T02:35:57.002Z,0
2018-07-31T02:36:57.271Z,0
2018-07-31T02:37:56.739Z,0
2018-07-31T02:38:56.740Z,0
2018-07-31T02:39:57.009Z,0
2018-07-31T02:40:57.250Z,0
2018-07-31T02:41:56.991Z,0
2018-07-31T02:42:56.740Z,0
2018-07-31T02:43:56.986Z,0
2018-07-31T02:44:57.267Z,0
2018-07-31T02:45:57.255Z,0
2018-07-31T02:46:57.376Z,0
2018-07-31T02:47:56.746Z,0
2018-07-31T02:48:57.247Z,0
2018-07-31T02:49:56.737Z,0
2018-07-31T02:50:56.999Z,0
2018-07-31T02:51:57.260Z,0
2018-07-31T02:52:57.330Z,0
2018-07-31T02:53:57.258Z,0
2018-07-31T02:54:56.987Z,0
2018-07-31T02:55:56.991Z,0
2018-07-31T02:56:57.272Z,0
2018-07-31T02:57:57.257Z,0
2018-07-31T02:58:56.215Z,0
2018-07-31T02:59:57.253Z,0
2018-07-31T03:00:57.268Z,0
2018-07-31T03:01:56.998Z,0
2018-07-31T03:02:57.257Z,0
2018-07-31T03:03:56.477Z,0
2018-07-31T03:04:57.242Z,0
2018-07-31T03:05:57.248Z,0
2018-07-31T03:06:56.983Z,0
2018-07-31T03:07:56.995Z,0
2018-07-31T03:08:56.986Z,0
2018-07-31T03:09:57.251Z,0
2018-07-31T03:10:56.720Z,0
2018-07-31T03:11:56.982Z,0
2018-07-31T03:12:56.978Z,0
2018-07-31T03:13:57.243Z,0
2018-07-31T03:14:57.242Z,0
2018-07-31T03:15:57.238Z,0
2018-07-31T03:16:56.728Z,0
2018-07-31T03:17:56.970Z,0
2018-07-31T03:18:56.974Z,0
2018-07-31T03:19:56.980Z,0
2018-07-31T03:20:56.981Z,0
2018-07-31T03:21:57.234Z,0
2018-07-31T03:22:56.972Z,0
2018-07-31T03:23:56.987Z,0
2018-07-31T03:24:56.972Z,0
2018-07-31T03:25:56.987Z,0
2018-07-31T03:26:57.221Z,0
2018-07-31T03:27:56.739Z,0
2018-07-31T03:28:57.009Z,0
2018-07-31T03:29:57.224Z,0
2018-07-31T03:30:57.231Z,5
2018-07-31T03:31:56.726Z,5
2018-07-31T03:32:57.220Z,5
2018-07-31T03:33:56.959Z,5
2018-07-31T03:34:56.971Z,5
2018-07-31T03:35:56.710Z,5
2018-07-31T03:36:56.452Z,5
2018-07-31T03:37:56.963Z,5
2018-07-31T03:38:57.210Z,5
2018-07-31T03:39:57.226Z,10
2018-07-31T03:40:57.214Z,10
2018-07-31T03:41:56.447Z,10
2018-07-31T03:42:57.215Z,10
2018-07-31T03:43:57.223Z,10
2018-07-31T03:44:57.221Z,10
2018-07-31T03:45:56.963Z,10
2018-07-31T03:46:57.213Z,15
2018-07-31T03:47:56.970Z,15
2018-07-31T03:48:57.214Z,15
2018-07-31T03:49:57.354Z,15
2018-07-31T03:50:56.962Z,15
2018-07-31T03:51:56.955Z,20
2018-07-31T03:52:56.699Z,20
2018-07-31T03:53:57.204Z,20
2018-07-31T03:54:57.206Z,20
2018-07-31T03:55:56.953Z,20
2018-07-31T03:56:56.959Z,25
2018-07-31T03:57:56.962Z,25
2018-07-31T03:58:57.214Z,25
2018-07-31T03:59:57.205Z,25
2018-07-31T04:00:57.204Z,25
2018-07-31T04:01:57.199Z,30
2018-07-31T04:02:57.207Z,30
2018-07-31T04:03:56.690Z,30
2018-07-31T04:04:56.945Z,30
2018-07-31T04:05:56.952Z,35
2018-07-31T04:06:56.954Z,35
2018-07-31T04:07:56.955Z,35
2018-07-31T04:08:56.948Z,35
2018-07-31T04:09:57.204Z,40
2018-07-31T04:10:56.951Z,40
2018-07-31T04:11:56.696Z,40
2018-07-31T04:12:56.691Z,40
2018-07-31T04:13:56.946Z,45
2018-07-31T04:14:57.210Z,45
2018-07-31T04:15:56.955Z,45
2018-07-31T04:16:57.369Z,50
2018-07-31T04:17:56.950Z,50
2018-07-31T04:18:56.953Z,50
2018-07-31T04:19:56.944Z,50
2018-07-31T04:20:57.204Z,55
2018-07-31T04:21:57.200Z,55
2018-07-31T04:22:56.951Z,55
2018-07-31T04:23:57.204Z,55
2018-07-31T04:24:57.204Z,60
2018-07-31T04:25:56.700Z,60
2018-07-31T04:26:56.956Z,60
2018-07-31T04:27:57.208Z,65
2018-07-31T04:28:57.200Z,65
2018-07-31T04:29:56.690Z,65
2018-07-31T04:30:57.203Z,65
2018-07-31T04:31:56.701Z,70
2018-07-31T04:32:56.947Z,70
2018-07-31T04:33:56.944Z,70
2018-07-31T04:34:56.682Z,70
2018-07-31T04:35:57.595Z,75
2018-07-31T04:36:56.709Z,75
2018-07-31T04:37:57.210Z,75
2018-07-31T04:38:57.208Z,75
2018-07-31T04:39:56.945Z,80
2018-07-31T04:40:56.686Z,80
2018-07-31T04:41:56.692Z,80
2018-07-31T04:42:56.948Z,80
2018-07-31T04:43:56.952Z,85
2018-07-31T04:44:57.212Z,85
2018-07-31T04:45:56.945Z,85
2018-07-31T04:46:56.689Z,90
2018-07-31T04:47:57.204Z,90
2018-07-31T04:48:57.208Z,90
2018-07-31T04:49:56.431Z,90
2018-07-31T04:50:57.211Z,95
2018-07-31T04:51:56.949Z,95
2018-07-31T04:52:57.207Z,95
2018-07-31T04:53:57.210Z,95
2018-07-31T04:54:56.700Z,95
2018-07-31T04:55:57.205Z,100
2018-07-31T04:56:57.126Z,100
2018-07-31T04:57:56.951Z,100
2018-07-31T04:58:56.697Z,100
2018-07-31T04:59:56.949Z,105
2018-07-31T05:00:56.947Z,105
2018-07-31T05:01:56.952Z,105
2018-07-31T05:02:57.215Z,105
2018-07-31T05:03:56.962Z,110
2018-07-31T05:04:56.966Z,110
2018-07-31T05:05:56.474Z,110
2018-07-31T05:06:57.212Z,110
2018-07-31T05:07:56.963Z,115
2018-07-31T05:08:56.700Z,115
2018-07-31T05:09:56.965Z,115
2018-07-31T05:10:56.728Z,115
2018-07-31T05:11:56.961Z,115
2018-07-31T05:12:56.700Z,120
2018-07-31T05:13:56.981Z,120
2018-07-31T05:14:56.708Z,120
2018-07-31T05:15:56.961Z,120
2018-07-31T05:16:56.961Z,120
2018-07-31T05:17:56.964Z,125
2018-07-31T05:18:57.228Z,125
2018-07-31T05:19:57.221Z,125
2018-07-31T05:20:56.967Z,125
2018-07-31T05:21:56.966Z,125
2018-07-31T05:22:56.971Z,125
2018-07-31T05:23:57.230Z,125
2018-07-31T05:24:56.715Z,130
2018-07-31T05:25:56.975Z,130
2018-07-31T05:26:57.231Z,130
2018-07-31T05:27:56.966Z,130
2018-07-31T05:28:56.722Z,130
2018-07-31T05:29:56.972Z,130
2018-07-31T05:30:57.231Z,135
2018-07-31T05:31:57.238Z,135
2018-07-31T05:32:58.037Z,135
2018-07-31T05:33:57.237Z,135
2018-07-31T05:34:56.983Z,135
2018-07-31T05:35:56.725Z,135
2018-07-31T05:36:57.239Z,140
2018-07-31T05:37:56.981Z,140
2018-07-31T05:38:57.241Z,140
2018-07-31T05:39:57.239Z,140
2018-07-31T05:40:57.239Z,140
2018-07-31T05:41:56.984Z,145
2018-07-31T05:42:57.245Z,145
2018-07-31T05:43:56.989Z,145
2018-07-31T05:44:57.257Z,145
2018-07-31T05:45:56.992Z,145
2018-07-31T05:46:57.248Z,150
2018-07-31T05:47:56.738Z,150
2018-07-31T05:48:56.740Z,150
2018-07-31T05:49:57.267Z,150
2018-07-31T05:50:57.265Z,150
2018-07-31T05:51:57.747Z,150
2018-07-31T05:52:57.006Z,150
2018-07-31T05:53:57.263Z,155
2018-07-31T05:54:57.264Z,155
2018-07-31T05:55:57.262Z,155
2018-07-31T05:56:56.749Z,155
2018-07-31T05:57:57.269Z,155
2018-07-31T05:58:57.008Z,155
2018-07-31T05:59:57.012Z,155
2018-07-31T06:00:57.017Z,155
2018-07-31T06:01:57.288Z,155
2018-07-31T06:02:57.018Z,160
2018-07-31T06:03:56.251Z,160
2018-07-31T06:04:57.032Z,160
2018-07-31T06:05:57.284Z,160
2018-07-31T06:06:56.772Z,160
2018-07-31T06:07:56.771Z,160
2018-07-31T06:08:57.284Z,160
2018-07-31T06:09:57.035Z,165
2018-07-31T06:10:57.288Z,165
2018-07-31T06:11:57.304Z,165
2018-07-31T06:12:57.057Z,165
2018-07-31T06:13:57.307Z,165
2018-07-31T06:14:57.048Z,165
2018-07-31T06:15:57.092Z,165
2018-07-31T06:16:57.306Z,170
2018-07-31T06:17:57.312Z,170
2018-07-31T06:18:56.798Z,170
2018-07-31T06:19:57.325Z,170
2018-07-31T06:20:57.055Z,170
2018-07-31T06:21:56.811Z,170
2018-07-31T06:22:57.057Z,170
2018-07-31T06:23:57.075Z,170
2018-07-31T06:24:57.083Z,175
2018-07-31T06:25:57.327Z,175
2018-07-31T06:26:57.093Z,175
2018-07-31T06:27:56.562Z,175
2018-07-31T06:28:57.333Z,175
2018-07-31T06:29:56.834Z,175
2018-07-31T06:30:57.086Z,175
2018-07-31T06:31:56.570Z,175
2018-07-31T06:32:57.702Z,175
2018-07-31T06:33:57.350Z,175
2018-07-31T06:34:57.356Z,180
2018-07-31T06:35:56.829Z,180
2018-07-31T06:36:57.352Z,180
2018-07-31T06:37:57.113Z,180
2018-07-31T06:38:57.356Z,180
2018-07-31T06:39:56.849Z,185
2018-07-31T06:40:57.366Z,195
2018-07-31T06:41:57.117Z,215
2018-07-31T06:42:57.370Z,210
2018-07-31T06:43:57.372Z,205
2018-07-31T06:44:57.114Z,205
2018-07-31T06:45:57.120Z,210
2018-07-31T06:46:57.375Z,225
2018-07-31T06:47:57.461Z,255
2018-07-31T06:48:57.415Z,275
2018-07-31T06:49:57.128Z,280
2018-07-31T06:50:57.406Z,270
2018-07-31T06:51:57.133Z,310
2018-07-31T06:52:57.138Z,375
2018-07-31T06:53:57.148Z,405
2018-07-31T06:54:57.405Z,420
2018-07-31T06:55:57.410Z,420
2018-07-31T06:56:57.033Z,415
2018-07-31T06:57:57.159Z,415
2018-07-31T06:58:57.158Z,415
2018-07-31T06:59:57.165Z,410
2018-07-31T07:00:57.427Z,410
2018-07-31T07:01:57.435Z,415
2018-07-31T07:02:56.922Z,410
2018-07-31T07:03:57.193Z,405
2018-07-31T07:04:57.457Z,405
2018-07-31T07:05:56.954Z,415
2018-07-31T07:06:57.469Z,410
2018-07-31T07:07:57.214Z,410
2018-07-31T07:08:57.469Z,395
2018-07-31T07:09:57.492Z,390
2018-07-31T07:10:57.487Z,390
2018-07-31T07:11:57.281Z,380
2018-07-31T07:12:57.506Z,380
2018-07-31T07:13:57.253Z,385
2018-07-31T07:14:57.258Z,385
2018-07-31T07:15:57.519Z,385
2018-07-31T07:16:57.277Z,390
2018-07-31T07:17:57.289Z,395
2018-07-31T07:18:57.295Z,395
2018-07-31T07:19:57.290Z,385
2018-07-31T07:20:57.051Z,380
2018-07-31T07:21:57.317Z,380
2018-07-31T07:22:57.072Z,385
2018-07-31T07:23:57.349Z,385
2018-07-31T07:24:57.089Z,390
2018-07-31T07:25:57.357Z,395
2018-07-31T07:26:57.635Z,395
2018-07-31T07:27:57.617Z,395
2018-07-31T07:28:57.383Z,400
2018-07-31T07:29:56.883Z,395
2018-07-31T07:30:57.665Z,395
2018-07-31T07:31:57.158Z,400
2018-07-31T07:32:57.169Z,410
2018-07-31T07:33:58.459Z,410
2018-07-31T07:34:57.446Z,400
2018-07-31T07:35:57.202Z,400
2018-07-31T07:36:57.478Z,405
2018-07-31T07:37:57.479Z,410
2018-07-31T07:38:57.496Z,400
2018-07-31T07:39:57.501Z,400
2018-07-31T07:40:57.766Z,380
2018-07-31T07:41:57.525Z,350
2018-07-31T07:42:57.531Z,315
2018-07-31T07:43:57.808Z,290
2018-07-31T07:44:57.816Z,275
2018-07-31T07:45:57.882Z,265
2018-07-31T07:46:57.840Z,260
2018-07-31T07:47:57.594Z,255
2018-07-31T07:48:57.861Z,250
2018-07-31T07:49:57.626Z,250
2018-07-31T07:50:57.930Z,245
2018-07-31T07:51:57.906Z,245
2018-07-31T07:52:57.905Z,245
2018-07-31T07:53:58.317Z,245
2018-07-31T07:54:57.945Z,240
2018-07-31T07:55:57.688Z,240
2018-07-31T07:56:57.698Z,245
2018-07-31T07:57:57.712Z,240
2018-07-31T07:58:57.979Z,245
2018-07-31T07:59:57.220Z,245
2018-07-31T08:00:57.748Z,245
2018-07-31T08:01:58.021Z,245
2018-07-31T08:02:57.518Z,245
2018-07-31T08:03:57.672Z,245
2018-07-31T08:04:58.049Z,240
2018-07-31T08:05:57.808Z,240
2018-07-31T08:06:57.818Z,240
2018-07-31T08:07:57.834Z,240
2018-07-31T08:08:57.849Z,235
2018-07-31T08:09:58.086Z,235
2018-07-31T08:10:57.603Z,235
2018-07-31T08:11:57.864Z,230
2018-07-31T08:12:57.615Z,230
2018-07-31T08:13:57.660Z,230
2018-07-31T08:14:57.959Z,230
2018-07-31T08:15:57.926Z,230
2018-07-31T08:16:57.719Z,230
2018-07-31T08:17:58.194Z,230
2018-07-31T08:18:57.679Z,230
2018-07-31T08:19:58.205Z,225
2018-07-31T08:20:58.216Z,225
2018-07-31T08:21:58.233Z,225
2018-07-31T08:22:58.242Z,225
2018-07-31T08:23:58.236Z,225
2018-07-31T08:24:58.002Z,225
2018-07-31T08:25:58.267Z,225
2018-07-31T08:26:58.273Z,225
2018-07-31T08:27:58.453Z,220
2018-07-31T08:28:57.791Z,220
2018-07-31T08:29:58.307Z,220
2018-07-31T08:30:58.311Z,220
2018-07-31T08:31:58.068Z,220
2018-07-31T08:32:58.069Z,220
2018-07-31T08:33:58.077Z,220
2018-07-31T08:34:58.348Z,220
2018-07-31T08:35:58.357Z,220
2018-07-31T08:36:58.370Z,215
2018-07-31T08:37:58.111Z,215
2018-07-31T08:38:58.384Z,215
2018-07-31T08:39:58.388Z,215
2018-07-31T08:40:58.134Z,215
2018-07-31T08:41:57.890Z,215
2018-07-31T08:42:58.423Z,215
2018-07-31T08:43:58.162Z,215
2018-07-31T08:44:57.914Z,215
2018-07-31T08:45:58.188Z,215
2018-07-31T08:46:58.449Z,215
2018-07-31T08:47:58.195Z,215
2018-07-31T08:48:58.209Z,215
2018-07-31T08:49:58.479Z,210
2018-07-31T08:50:58.232Z,210
2018-07-31T08:51:57.984Z,210
2018-07-31T08:52:57.990Z,210
2018-07-31T08:53:58.513Z,210
2018-07-31T08:54:58.260Z,210
2018-07-31T08:55:58.452Z,210
2018-07-31T08:56:58.685Z,205
2018-07-31T08:57:58.538Z,205
2018-07-31T08:58:58.034Z,205
2018-07-31T08:59:58.295Z,205
2018-07-31T09:00:57.800Z,205
2018-07-31T09:01:58.318Z,205
2018-07-31T09:02:58.284Z,205
2018-07-31T09:03:58.332Z,205
2018-07-31T09:04:58.606Z,205
2018-07-31T09:05:58.097Z,200
2018-07-31T09:06:58.369Z,200
2018-07-31T09:07:58.111Z,200
2018-07-31T09:08:59.101Z,200
2018-07-31T09:09:58.396Z,200
2018-07-31T09:10:58.678Z,200
2018-07-31T09:11:58.392Z,200
2018-07-31T09:12:58.402Z,195
2018-07-31T09:13:58.151Z,195
2018-07-31T09:14:58.417Z,195
2018-07-31T09:15:58.426Z,195
2018-07-31T09:16:58.436Z,195
2018-07-31T09:17:58.441Z,195
2018-07-31T09:18:58.449Z,195
2018-07-31T09:19:58.711Z,195
2018-07-31T09:20:58.799Z,195
2018-07-31T09:21:58.728Z,195
2018-07-31T09:22:58.485Z,195
2018-07-31T09:23:58.751Z,195
2018-07-31T09:24:59.077Z,200
2018-07-31T09:25:58.767Z,200
2018-07-31T09:26:58.519Z,200
2018-07-31T09:27:58.533Z,200
2018-07-31T09:28:58.787Z,200
2018-07-31T09:29:58.545Z,200
2018-07-31T09:30:58.757Z,200
2018-07-31T09:31:58.555Z,195
2018-07-31T09:32:58.572Z,195
2018-07-31T09:33:58.827Z,200
2018-07-31T09:34:58.856Z,200
2018-07-31T09:35:58.588Z,200
2018-07-31T09:36:58.854Z,200
2018-07-31T09:37:58.634Z,200
2018-07-31T09:38:58.876Z,200
2018-07-31T09:39:58.628Z,205
2018-07-31T09:40:58.881Z,205
2018-07-31T09:41:58.635Z,210
2018-07-31T09:42:58.645Z,210
2018-07-31T09:43:58.915Z,210
2018-07-31T09:44:58.662Z,205
2018-07-31T09:45:58.684Z,210
2018-07-31T09:46:58.428Z,210
2018-07-31T09:47:58.692Z,210
2018-07-31T09:48:58.181Z,215
2018-07-31T09:49:58.975Z,220
2018-07-31T09:50:58.714Z,220
2018-07-31T09:51:58.723Z,220
2018-07-31T09:52:58.468Z,215
2018-07-31T09:53:58.740Z,210
2018-07-31T09:54:59.000Z,205
2018-07-31T09:55:58.502Z,205
2018-07-31T09:56:58.762Z,210
2018-07-31T09:57:59.027Z,215
2018-07-31T09:58:58.012Z,215
2018-07-31T09:59:59.048Z,215
2018-07-31T10:00:58.546Z,220
2018-07-31T10:01:59.055Z,220
2018-07-31T10:02:58.810Z,230
2018-07-31T10:03:58.570Z,235
2018-07-31T10:04:58.910Z,235
2018-07-31T10:05:58.835Z,235
2018-07-31T10:06:59.161Z,235
2018-07-31T10:07:59.103Z,235
2018-07-31T10:08:59.124Z,230
2018-07-31T10:09:58.871Z,230
2018-07-31T10:10:59.135Z,230
2018-07-31T10:11:59.614Z,240
2018-07-31T10:12:58.644Z,245
2018-07-31T10:13:58.659Z,255
2018-07-31T10:14:59.174Z,265
2018-07-31T10:15:58.663Z,270
2018-07-31T10:16:58.936Z,280
2018-07-31T10:17:59.625Z,290
2018-07-31T10:18:58.690Z,285
2018-07-31T10:19:58.701Z,275
2018-07-31T10:20:58.962Z,285
2018-07-31T10:21:58.463Z,290
2018-07-31T10:22:58.730Z,290
2018-07-31T10:23:59.250Z,285
2018-07-31T10:24:59.001Z,275
2018-07-31T10:25:59.019Z,275
2018-07-31T10:26:58.758Z,280
2018-07-31T10:27:59.039Z,270
2018-07-31T10:28:59.297Z,255
2018-07-31T10:29:59.051Z,250
2018-07-31T10:30:59.758Z,245
2018-07-31T10:31:59.080Z,250
2018-07-31T10:32:58.815Z,245
2018-07-31T10:33:58.827Z,240
2018-07-31T10:34:59.086Z,235
2018-07-31T10:35:59.102Z,230
2018-07-31T10:36:59.114Z,230
2018-07-31T10:37:59.666Z,230
2018-07-31T10:38:59.130Z,240
2018-07-31T10:39:59.133Z,250
2018-07-31T10:40:58.681Z,255
2018-07-31T10:41:58.647Z,255
2018-07-31T10:42:58.648Z,255
2018-07-31T10:43:59.366Z,255
2018-07-31T10:44:59.177Z,250
2018-07-31T10:45:59.193Z,255
2018-07-31T10:46:58.696Z,260
2018-07-31T10:47:58.982Z,265
2018-07-31T10:48:59.066Z,265
2018-07-31T10:49:59.016Z,260
2018-07-31T10:50:59.544Z,255
2018-07-31T10:51:59.503Z,255
2018-07-31T10:52:59.000Z,250
2018-07-31T10:53:59.516Z,240
2018-07-31T10:54:59.649Z,225
2018-07-31T10:55:59.534Z,225
2018-07-31T10:56:59.037Z,230
2018-07-31T10:57:59.725Z,220
2018-07-31T10:58:59.054Z,220
2018-07-31T10:59:59.633Z,220
2018-07-31T11:00:59.334Z,225
2018-07-31T11:01:59.339Z,230
2018-07-31T11:03:00.145Z,235
2018-07-31T11:03:59.880Z,240
2018-07-31T11:04:59.619Z,240
2018-07-31T11:05:59.113Z,240
2018-07-31T11:06:59.384Z,250
2018-07-31T11:07:59.132Z,260
2018-07-31T11:08:59.412Z,270
2018-07-31T11:09:59.408Z,275
2018-07-31T11:10:59.435Z,280
2018-07-31T11:11:59.711Z,270
2018-07-31T11:12:59.189Z,270
2018-07-31T11:13:59.201Z,265
2018-07-31T11:14:58.967Z,270
2018-07-31T11:15:59.734Z,265
2018-07-31T11:16:59.739Z,265
2018-07-31T11:17:59.749Z,250
2018-07-31T11:18:59.757Z,245
2018-07-31T11:19:59.778Z,240
2018-07-31T11:20:59.455Z,240
2018-07-31T11:21:59.782Z,235
2018-07-31T11:22:59.805Z,230
2018-07-31T11:23:59.286Z,225
2018-07-31T11:24:59.827Z,225
2018-07-31T11:25:59.566Z,190
2018-07-31T11:26:59.061Z,190
2018-07-31T11:27:59.580Z,195
2018-07-31T11:28:59.591Z,205
2018-07-31T11:29:59.853Z,220
2018-07-31T11:30:59.613Z,225
2018-07-31T11:31:59.870Z,230
2018-07-31T11:32:59.983Z,235
2018-07-31T11:33:59.134Z,235
2018-07-31T11:34:59.901Z,215
2018-07-31T11:35:59.656Z,210
2018-07-31T11:36:59.919Z,220
2018-07-31T11:37:59.667Z,235
2018-07-31T11:38:59.969Z,240
2018-07-31T11:39:59.973Z,240
2018-07-31T11:40:59.954Z,235
2018-07-31T11:41:59.713Z,240
2018-07-31T11:42:59.744Z,235
2018-07-31T11:43:59.353Z,240
2018-07-31T11:44:59.739Z,240
2018-07-31T11:46:00.003Z,240
2018-07-31T11:46:59.752Z,235
2018-07-31T11:47:59.756Z,230
2018-07-31T11:48:59.777Z,225
2018-07-31T11:50:00.278Z,225
2018-07-31T11:50:59.781Z,225
2018-07-31T11:51:59.799Z,225
2018-07-31T11:52:59.804Z,230
2018-07-31T11:53:59.812Z,235
2018-07-31T11:54:59.822Z,245
2018-07-31T11:56:00.239Z,250
2018-07-31T11:56:59.591Z,255
2018-07-31T11:57:59.594Z,255
2018-07-31T11:59:00.109Z,260
2018-07-31T11:59:59.869Z,260
2018-07-31T12:01:00.139Z,260
2018-07-31T12:01:59.968Z,265
2018-07-31T12:02:59.957Z,275
2018-07-31T12:03:59.645Z,275
2018-07-31T12:04:59.911Z,265
2018-07-31T12:06:00.175Z,255
2018-07-31T12:06:59.669Z,255
2018-07-31T12:08:00.187Z,260
2018-07-31T12:08:59.957Z,255
2018-07-31T12:10:00.115Z,260
2018-07-31T12:11:00.221Z,260
2018-07-31T12:11:59.707Z,260
2018-07-31T12:13:00.231Z,255
2018-07-31T12:13:59.953Z,245
2018-07-31T12:15:00.007Z,230
2018-07-31T12:16:00.345Z,220
2018-07-31T12:17:00.012Z,215
2018-07-31T12:18:00.020Z,210
2018-07-31T12:19:00.104Z,200
2018-07-31T12:20:00.298Z,190
2018-07-31T12:21:00.703Z,185
2018-07-31T12:22:00.305Z,185
2018-07-31T12:23:00.333Z,190
2018-07-31T12:24:00.065Z,195
2018-07-31T12:24:59.817Z,195
2018-07-31T12:25:59.827Z,200
2018-07-31T12:27:00.054Z,200
2018-07-31T12:28:00.098Z,195
2018-07-31T12:29:00.364Z,190
2018-07-31T12:30:00.374Z,190
2018-07-31T12:31:00.126Z,190
2018-07-31T12:32:00.138Z,200
2018-07-31T12:33:00.713Z,205
2018-07-31T12:33:59.893Z,200
2018-07-31T12:35:00.419Z,195
2018-07-31T12:36:00.424Z,190
2018-07-31T12:37:00.426Z,190
2018-07-31T12:38:00.482Z,190
2018-07-31T12:39:00.191Z,190
2018-07-31T12:40:00.200Z,180
2018-07-31T12:41:00.458Z,175
2018-07-31T12:42:00.467Z,175
2018-07-31T12:43:00.228Z,175
2018-07-31T12:44:00.306Z,170
2018-07-31T12:45:00.491Z,170
2018-07-31T12:46:00.540Z,170
2018-07-31T12:47:00.564Z,175
2018-07-31T12:48:00.516Z,180
2018-07-31T12:49:00.275Z,180
2018-07-31T12:50:00.025Z,185
2018-07-31T12:51:00.331Z,180
2018-07-31T12:52:00.286Z,180
2018-07-31T12:53:00.555Z,180
2018-07-31T12:54:00.044Z,180
2018-07-31T12:55:00.053Z,170
2018-07-31T12:56:00.585Z,160
2018-07-31T12:57:00.352Z,155
2018-07-31T12:58:00.339Z,150
2018-07-31T12:59:00.082Z,150
2018-07-31T13:00:00.860Z,155
2018-07-31T13:01:00.394Z,165
2018-07-31T13:02:00.140Z,180
2018-07-31T13:03:00.153Z,195
2018-07-31T13:04:00.371Z,205
2018-07-31T13:05:00.394Z,200
2018-07-31T13:06:00.520Z,190
2018-07-31T13:07:00.401Z,175
2018-07-31T13:08:00.662Z,160
2018-07-31T13:09:00.411Z,160
2018-07-31T13:10:00.427Z,160
2018-07-31T13:11:00.422Z,160
2018-07-31T13:12:00.441Z,165
2018-07-31T13:13:00.186Z,160
2018-07-31T13:14:00.706Z,155
2018-07-31T13:15:00.719Z,145
2018-07-31T13:16:00.469Z,140
2018-07-31T13:17:00.461Z,135
2018-07-31T13:18:00.226Z,135
2018-07-31T13:19:00.445Z,135
2018-07-31T13:20:00.496Z,135
2018-07-31T13:21:00.501Z,135
2018-07-31T13:22:00.762Z,135
2018-07-31T13:23:01.133Z,135
2018-07-31T13:24:00.518Z,130
2018-07-31T13:25:00.525Z,130
2018-07-31T13:26:00.790Z,130
2018-07-31T13:27:00.815Z,125
2018-07-31T13:28:01.006Z,130
2018-07-31T13:29:00.545Z,130
2018-07-31T13:30:00.810Z,130
2018-07-31T13:31:00.913Z,135
2018-07-31T13:32:00.829Z,135
2018-07-31T13:33:00.581Z,140
2018-07-31T13:34:00.842Z,140
2018-07-31T13:35:00.844Z,140
2018-07-31T13:36:00.854Z,145
2018-07-31T13:37:00.671Z,145
2018-07-31T13:38:00.611Z,150
2018-07-31T13:39:00.377Z,150
2018-07-31T13:40:00.879Z,150
2018-07-31T13:41:00.889Z,150
2018-07-31T13:41:59.870Z,150
2018-07-31T13:43:00.416Z,155
2018-07-31T13:44:01.714Z,155
2018-07-31T13:45:00.650Z,165
2018-07-31T13:46:00.667Z,175
2018-07-31T13:47:00.664Z,180
2018-07-31T13:48:00.679Z,185
2018-07-31T13:49:00.689Z,195
2018-07-31T13:50:00.941Z,200
2018-07-31T13:51:00.691Z,210
2018-07-31T13:52:00.443Z,220
2018-07-31T13:53:00.970Z,230
2018-07-31T13:54:00.459Z,240
2018-07-31T13:55:00.777Z,235
2018-07-31T13:56:00.728Z,235
2018-07-31T13:57:00.983Z,235
2018-07-31T13:58:01.000Z,235
2018-07-31T13:59:00.489Z,240
2018-07-31T14:00:00.760Z,245
2018-07-31T14:01:01.026Z,250
2018-07-31T14:02:01.029Z,250
2018-07-31T14:03:00.794Z,250
2018-07-31T14:04:01.052Z,255